Terminal Aerodrome Forecast
Issued by NWS Duluth, MN

Home | Current Version | Previous Version | Text Only | Print | Product List | Glossary On
Versions: 1 2 3 4 5 6 7 8 9 10 11 12 13 14 15 16 17 18 19 20 21 22 23 24 25 26 27 28 29 30 31 32
188
FTUS43 KDLH 221139
TAFDLH
TAF
KDLH 221139Z 2212/2312 36006KT P6SM VCSH OVC090
     FM221600 06004KT P6SM VCSH BKN035
     FM222200 04006KT P6SM -SHRA OVC008
     FM230200 01006KT 1 1/2SM -SNRA OVC003
     FM230600 36007KT P6SM OVC008
     FM231000 35007KT P6SM BKN020=

USA.gov is the U.S. government's official web portal to all federal, state and local government web resources and services.